sensor_id;sensor_type;location;lat;lon;timestamp;P1;durP1;ratioP1;P2;durP2;ratioP2
11524;SDS011;5819;49.648;8.330;2023-04-06T00:00:05;16.77;;;12.20;;
11524;SDS011;5819;49.648;8.330;2023-04-06T00:02:35;15.17;;;11.63;;
11524;SDS011;5819;49.648;8.330;2023-04-06T00:05:04;16.63;;;11.82;;
11524;SDS011;5819;49.648;8.330;2023-04-06T00:07:33;15.98;;;12.45;;
11524;SDS011;5819;49.648;8.330;2023-04-06T00:10:02;18.45;;;12.43;;
11524;SDS011;5819;49.648;8.330;2023-04-06T00:12:33;16.83;;;12.82;;
11524;SDS011;5819;49.648;8.330;2023-04-06T00:15:01;18.42;;;14.00;;
11524;SDS011;5819;49.648;8.330;2023-04-06T00:17:31;18.58;;;15.00;;
11524;SDS011;5819;49.648;8.330;2023-04-06T00:19:59;19.70;;;14.45;;
11524;SDS011;5819;49.648;8.330;2023-04-06T00:22:27;21.63;;;14.95;;
11524;SDS011;5819;49.648;8.330;2023-04-06T00:24:55;15.73;;;13.73;;
11524;SDS011;5819;49.648;8.330;2023-04-06T00:27:24;18.75;;;15.20;;
11524;SDS011;5819;49.648;8.330;2023-04-06T00:29:53;18.38;;;13.70;;
11524;SDS011;5819;49.648;8.330;2023-04-06T00:32:21;19.45;;;13.30;;
11524;SDS011;5819;49.648;8.330;2023-04-06T00:34:49;15.43;;;12.30;;
11524;SDS011;5819;49.648;8.330;2023-04-06T00:37:17;15.32;;;11.95;;
11524;SDS011;5819;49.648;8.330;2023-04-06T00:39:46;16.57;;;12.07;;
11524;SDS011;5819;49.648;8.330;2023-04-06T00:42:13;22.80;;;15.15;;
11524;SDS011;5819;49.648;8.330;2023-04-06T00:44:42;19.20;;;14.80;;
11524;SDS011;5819;49.648;8.330;2023-04-06T00:47:12;19.63;;;14.03;;
11524;SDS011;5819;49.648;8.330;2023-04-06T00:49:40;19.97;;;13.47;;
11524;SDS011;5819;49.648;8.330;2023-04-06T00:52:09;24.33;;;13.43;;
11524;SDS011;5819;49.648;8.330;2023-04-06T00:54:37;17.23;;;12.00;;
11524;SDS011;5819;49.648;8.330;2023-04-06T00:57:06;18.00;;;12.37;;
11524;SDS011;5819;49.648;8.330;2023-04-06T00:59:34;15.53;;;11.70;;
11524;SDS011;5819;49.648;8.330;2023-04-06T01:02:04;16.25;;;12.32;;
11524;SDS011;5819;49.648;8.330;2023-04-06T01:04:40;17.02;;;11.63;;
11524;SDS011;5819;49.648;8.330;2023-04-06T01:07:15;14.33;;;12.13;;
11524;SDS011;5819;49.648;8.330;2023-04-06T01:09:57;21.43;;;13.00;;
11524;SDS011;5819;49.648;8.330;2023-04-06T01:12:28;21.17;;;13.97;;
11524;SDS011;5819;49.648;8.330;2023-04-06T01:14:58;18.87;;;13.43;;
11524;SDS011;5819;49.648;8.330;2023-04-06T01:17:27;21.37;;;12.43;;
11524;SDS011;5819;49.648;8.330;2023-04-06T01:20:06;16.13;;;10.48;;
11524;SDS011;5819;49.648;8.330;2023-04-06T01:22:38;13.27;;;10.27;;
11524;SDS011;5819;49.648;8.330;2023-04-06T01:25:07;14.73;;;9.77;;
11524;SDS011;5819;49.648;8.330;2023-04-06T01:27:45;12.97;;;9.33;;
11524;SDS011;5819;49.648;8.330;2023-04-06T01:30:23;12.80;;;9.77;;
11524;SDS011;5819;49.648;8.330;2023-04-06T01:32:55;14.60;;;9.63;;
11524;SDS011;5819;49.648;8.330;2023-04-06T01:35:34;12.50;;;9.90;;
11524;SDS011;5819;49.648;8.330;2023-04-06T01:38:17;13.37;;;8.73;;
11524;SDS011;5819;49.648;8.330;2023-04-06T01:40:47;12.43;;;9.10;;
11524;SDS011;5819;49.648;8.330;2023-04-06T01:43:18;13.83;;;9.13;;
11524;SDS011;5819;49.648;8.330;2023-04-06T01:46:01;11.73;;;8.20;;
11524;SDS011;5819;49.648;8.330;2023-04-06T01:48:33;11.87;;;9.40;;
11524;SDS011;5819;49.648;8.330;2023-04-06T01:51:12;11.70;;;9.13;;
11524;SDS011;5819;49.648;8.330;2023-04-06T01:53:53;14.47;;;10.00;;
11524;SDS011;5819;49.648;8.330;2023-04-06T01:56:27;13.97;;;9.87;;
11524;SDS011;5819;49.648;8.330;2023-04-06T01:59:08;14.50;;;9.17;;
11524;SDS011;5819;49.648;8.330;2023-04-06T02:01:40;15.13;;;9.77;;
11524;SDS011;5819;49.648;8.330;2023-04-06T02:04:08;10.50;;;8.07;;
11524;SDS011;5819;49.648;8.330;2023-04-06T02:06:37;11.10;;;8.67;;
11524;SDS011;5819;49.648;8.330;2023-04-06T02:09:08;10.80;;;9.10;;
11524;SDS011;5819;49.648;8.330;2023-04-06T02:11:36;12.00;;;8.50;;
11524;SDS011;5819;49.648;8.330;2023-04-06T02:14:04;12.57;;;8.27;;
11524;SDS011;5819;49.648;8.330;2023-04-06T02:16:40;10.50;;;8.43;;
11524;SDS011;5819;49.648;8.330;2023-04-06T02:19:08;12.10;;;8.40;;
11524;SDS011;5819;49.648;8.330;2023-04-06T02:21:37;10.10;;;7.97;;
11524;SDS011;5819;49.648;8.330;2023-04-06T02:24:05;10.97;;;8.07;;
11524;SDS011;5819;49.648;8.330;2023-04-06T02:26:35;12.80;;;7.33;;
11524;SDS011;5819;49.648;8.330;2023-04-06T02:29:03;9.50;;;7.10;;
11524;SDS011;5819;49.648;8.330;2023-04-06T02:31:32;9.47;;;7.13;;
11524;SDS011;5819;49.648;8.330;2023-04-06T02:34:01;9.73;;;7.93;;
11524;SDS011;5819;49.648;8.330;2023-04-06T02:36:31;11.00;;;8.20;;
11524;SDS011;5819;49.648;8.330;2023-04-06T02:38:59;11.93;;;8.17;;
11524;SDS011;5819;49.648;8.330;2023-04-06T02:41:27;10.27;;;7.83;;
11524;SDS011;5819;49.648;8.330;2023-04-06T02:43:58;10.80;;;7.80;;
11524;SDS011;5819;49.648;8.330;2023-04-06T02:46:52;10.37;;;7.93;;
11524;SDS011;5819;49.648;8.330;2023-04-06T02:49:22;10.40;;;7.77;;
11524;SDS011;5819;49.648;8.330;2023-04-06T02:51:54;10.00;;;7.70;;
11524;SDS011;5819;49.648;8.330;2023-04-06T02:54:26;10.67;;;8.10;;
11524;SDS011;5819;49.648;8.330;2023-04-06T02:56:54;13.07;;;7.83;;
11524;SDS011;5819;49.648;8.330;2023-04-06T02:59:31;14.83;;;8.67;;
11524;SDS011;5819;49.648;8.330;2023-04-06T03:02:06;14.50;;;8.73;;
11524;SDS011;5819;49.648;8.330;2023-04-06T03:04:34;10.67;;;8.37;;
11524;SDS011;5819;49.648;8.330;2023-04-06T03:07:06;12.97;;;8.23;;
11524;SDS011;5819;49.648;8.330;2023-04-06T03:09:37;12.70;;;9.07;;
11524;SDS011;5819;49.648;8.330;2023-04-06T03:12:06;11.43;;;9.00;;
11524;SDS011;5819;49.648;8.330;2023-04-06T03:14:55;11.80;;;8.80;;
11524;SDS011;5819;49.648;8.330;2023-04-06T03:17:23;10.90;;;8.23;;
11524;SDS011;5819;49.648;8.330;2023-04-06T03:19:58;13.03;;;9.70;;
11524;SDS011;5819;49.648;8.330;2023-04-06T03:22:29;14.63;;;8.47;;
11524;SDS011;5819;49.648;8.330;2023-04-06T03:24:57;11.80;;;8.43;;
11524;SDS011;5819;49.648;8.330;2023-04-06T03:27:29;10.90;;;8.07;;
11524;SDS011;5819;49.648;8.330;2023-04-06T03:30:00;9.60;;;7.67;;
11524;SDS011;5819;49.648;8.330;2023-04-06T03:32:32;9.37;;;7.90;;
11524;SDS011;5819;49.648;8.330;2023-04-06T03:35:01;13.77;;;7.80;;
11524;SDS011;5819;49.648;8.330;2023-04-06T03:37:30;10.43;;;8.20;;
11524;SDS011;5819;49.648;8.330;2023-04-06T03:40:01;13.70;;;8.93;;
11524;SDS011;5819;49.648;8.330;2023-04-06T03:42:30;14.07;;;8.57;;
11524;SDS011;5819;49.648;8.330;2023-04-06T03:45:07;14.03;;;8.50;;
11524;SDS011;5819;49.648;8.330;2023-04-06T03:47:41;11.73;;;7.87;;
11524;SDS011;5819;49.648;8.330;2023-04-06T03:50:09;11.47;;;7.63;;
11524;SDS011;5819;49.648;8.330;2023-04-06T03:52:38;9.17;;;7.57;;
11524;SDS011;5819;49.648;8.330;2023-04-06T03:55:07;12.60;;;9.03;;
11524;SDS011;5819;49.648;8.330;2023-04-06T03:57:35;11.43;;;7.37;;
11524;SDS011;5819;49.648;8.330;2023-04-06T04:00:04;16.57;;;8.00;;
11524;SDS011;5819;49.648;8.330;2023-04-06T04:02:38;9.00;;;7.13;;
11524;SDS011;5819;49.648;8.330;2023-04-06T04:05:07;11.30;;;7.83;;
11524;SDS011;5819;49.648;8.330;2023-04-06T04:07:36;12.60;;;7.97;;
11524;SDS011;5819;49.648;8.330;2023-04-06T04:10:05;9.23;;;7.47;;
11524;SDS011;5819;49.648;8.330;2023-04-06T04:12:34;11.47;;;7.77;;
11524;SDS011;5819;49.648;8.330;2023-04-06T04:15:02;9.37;;;7.40;;
11524;SDS011;5819;49.648;8.330;2023-04-06T04:17:32;12.17;;;7.50;;
11524;SDS011;5819;49.648;8.330;2023-04-06T04:20:00;9.50;;;7.63;;
11524;SDS011;5819;49.648;8.330;2023-04-06T04:22:28;12.70;;;8.20;;
11524;SDS011;5819;49.648;8.330;2023-04-06T04:24:56;11.77;;;8.43;;
11524;SDS011;5819;49.648;8.330;2023-04-06T04:27:25;10.53;;;8.33;;
11524;SDS011;5819;49.648;8.330;2023-04-06T04:29:53;11.37;;;8.10;;
11524;SDS011;5819;49.648;8.330;2023-04-06T04:32:21;11.80;;;8.73;;
11524;SDS011;5819;49.648;8.330;2023-04-06T04:34:56;11.80;;;8.07;;
11524;SDS011;5819;49.648;8.330;2023-04-06T04:37:36;12.67;;;8.27;;
11524;SDS011;5819;49.648;8.330;2023-04-06T04:40:05;13.07;;;7.53;;
11524;SDS011;5819;49.648;8.330;2023-04-06T04:42:43;11.77;;;8.60;;
11524;SDS011;5819;49.648;8.330;2023-04-06T04:45:19;13.67;;;8.60;;
11524;SDS011;5819;49.648;8.330;2023-04-06T04:47:47;12.03;;;7.50;;
11524;SDS011;5819;49.648;8.330;2023-04-06T04:50:18;11.70;;;7.03;;
11524;SDS011;5819;49.648;8.330;2023-04-06T04:52:49;9.43;;;7.57;;
11524;SDS011;5819;49.648;8.330;2023-04-06T04:55:23;10.23;;;7.43;;
11524;SDS011;5819;49.648;8.330;2023-04-06T04:57:55;11.57;;;7.47;;
11524;SDS011;5819;49.648;8.330;2023-04-06T05:00:49;12.53;;;8.33;;
11524;SDS011;5819;49.648;8.330;2023-04-06T05:03:19;8.93;;;7.80;;
11524;SDS011;5819;49.648;8.330;2023-04-06T05:05:58;10.43;;;7.80;;
11524;SDS011;5819;49.648;8.330;2023-04-06T05:08:31;11.70;;;8.43;;
11524;SDS011;5819;49.648;8.330;2023-04-06T05:11:00;13.17;;;8.87;;
11524;SDS011;5819;49.648;8.330;2023-04-06T05:13:33;12.47;;;9.20;;
11524;SDS011;5819;49.648;8.330;2023-04-06T05:16:07;11.27;;;8.97;;
11524;SDS011;5819;49.648;8.330;2023-04-06T05:18:36;12.70;;;9.03;;
11524;SDS011;5819;49.648;8.330;2023-04-06T05:21:07;12.73;;;9.67;;
11524;SDS011;5819;49.648;8.330;2023-04-06T05:23:59;16.33;;;9.97;;
11524;SDS011;5819;49.648;8.330;2023-04-06T05:26:30;13.63;;;9.87;;
11524;SDS011;5819;49.648;8.330;2023-04-06T05:29:04;13.33;;;10.30;;
11524;SDS011;5819;49.648;8.330;2023-04-06T05:31:35;15.23;;;10.53;;
11524;SDS011;5819;49.648;8.330;2023-04-06T05:34:03;13.30;;;10.17;;
11524;SDS011;5819;49.648;8.330;2023-04-06T05:36:36;13.10;;;9.63;;
11524;SDS011;5819;49.648;8.330;2023-04-06T05:39:13;14.97;;;10.10;;
11524;SDS011;5819;49.648;8.330;2023-04-06T05:41:44;13.37;;;9.77;;
11524;SDS011;5819;49.648;8.330;2023-04-06T05:44:14;15.33;;;9.97;;
11524;SDS011;5819;49.648;8.330;2023-04-06T05:46:46;17.00;;;10.97;;
11524;SDS011;5819;49.648;8.330;2023-04-06T05:49:15;17.13;;;11.10;;
11524;SDS011;5819;49.648;8.330;2023-04-06T05:51:45;14.53;;;10.67;;
11524;SDS011;5819;49.648;8.330;2023-04-06T05:54:13;17.07;;;11.03;;
11524;SDS011;5819;49.648;8.330;2023-04-06T05:56:41;17.80;;;10.53;;
11524;SDS011;5819;49.648;8.330;2023-04-06T05:59:11;15.67;;;11.60;;
11524;SDS011;5819;49.648;8.330;2023-04-06T06:01:39;14.63;;;9.70;;
11524;SDS011;5819;49.648;8.330;2023-04-06T06:04:08;13.97;;;10.47;;
11524;SDS011;5819;49.648;8.330;2023-04-06T06:06:38;12.90;;;10.03;;
11524;SDS011;5819;49.648;8.330;2023-04-06T06:09:14;14.37;;;11.20;;
11524;SDS011;5819;49.648;8.330;2023-04-06T06:11:52;17.37;;;10.20;;
11524;SDS011;5819;49.648;8.330;2023-04-06T06:14:24;14.13;;;10.90;;
11524;SDS011;5819;49.648;8.330;2023-04-06T06:16:55;15.37;;;10.63;;
11524;SDS011;5819;49.648;8.330;2023-04-06T06:19:23;14.63;;;11.63;;
11524;SDS011;5819;49.648;8.330;2023-04-06T06:21:54;15.67;;;12.03;;
11524;SDS011;5819;49.648;8.330;2023-04-06T06:24:24;17.17;;;11.77;;
11524;SDS011;5819;49.648;8.330;2023-04-06T06:26:58;16.00;;;11.30;;
11524;SDS011;5819;49.648;8.330;2023-04-06T06:29:28;15.20;;;12.10;;
11524;SDS011;5819;49.648;8.330;2023-04-06T06:31:58;16.97;;;12.00;;
11524;SDS011;5819;49.648;8.330;2023-04-06T06:34:27;16.43;;;11.77;;
11524;SDS011;5819;49.648;8.330;2023-04-06T06:36:58;17.20;;;12.33;;
11524;SDS011;5819;49.648;8.330;2023-04-06T06:39:27;14.60;;;11.93;;
11524;SDS011;5819;49.648;8.330;2023-04-06T06:41:55;15.33;;;12.27;;
11524;SDS011;5819;49.648;8.330;2023-04-06T06:44:44;20.90;;;12.47;;
11524;SDS011;5819;49.648;8.330;2023-04-06T06:47:12;19.03;;;12.30;;
11524;SDS011;5819;49.648;8.330;2023-04-06T06:49:40;15.57;;;12.67;;
11524;SDS011;5819;49.648;8.330;2023-04-06T06:52:08;19.97;;;12.87;;
11524;SDS011;5819;49.648;8.330;2023-04-06T06:54:38;16.48;;;14.23;;
11524;SDS011;5819;49.648;8.330;2023-04-06T06:57:06;18.05;;;13.35;;
11524;SDS011;5819;49.648;8.330;2023-04-06T06:59:35;18.77;;;12.63;;
11524;SDS011;5819;49.648;8.330;2023-04-06T07:02:03;15.27;;;12.67;;
11524;SDS011;5819;49.648;8.330;2023-04-06T07:04:31;15.30;;;12.25;;
11524;SDS011;5819;49.648;8.330;2023-04-06T07:07:00;18.80;;;12.00;;
11524;SDS011;5819;49.648;8.330;2023-04-06T07:09:30;16.63;;;12.85;;
11524;SDS011;5819;49.648;8.330;2023-04-06T07:12:01;15.63;;;12.75;;
11524;SDS011;5819;49.648;8.330;2023-04-06T07:14:31;18.13;;;12.65;;
11524;SDS011;5819;49.648;8.330;2023-04-06T07:16:59;14.88;;;12.82;;
11524;SDS011;5819;49.648;8.330;2023-04-06T07:19:28;17.77;;;13.13;;
11524;SDS011;5819;49.648;8.330;2023-04-06T07:21:56;17.75;;;12.90;;
11524;SDS011;5819;49.648;8.330;2023-04-06T07:24:25;17.63;;;12.73;;
11524;SDS011;5819;49.648;8.330;2023-04-06T07:26:53;16.83;;;12.60;;
11524;SDS011;5819;49.648;8.330;2023-04-06T07:29:24;14.95;;;12.40;;
11524;SDS011;5819;49.648;8.330;2023-04-06T07:31:53;14.50;;;12.88;;
11524;SDS011;5819;49.648;8.330;2023-04-06T07:34:23;15.65;;;12.00;;
11524;SDS011;5819;49.648;8.330;2023-04-06T07:36:55;19.38;;;12.32;;
11524;SDS011;5819;49.648;8.330;2023-04-06T07:39:26;14.65;;;11.90;;
11524;SDS011;5819;49.648;8.330;2023-04-06T07:41:57;15.63;;;12.38;;
11524;SDS011;5819;49.648;8.330;2023-04-06T07:44:28;15.52;;;12.57;;
11524;SDS011;5819;49.648;8.330;2023-04-06T07:46:56;15.10;;;12.40;;
11524;SDS011;5819;49.648;8.330;2023-04-06T07:49:25;16.88;;;12.52;;
11524;SDS011;5819;49.648;8.330;2023-04-06T07:51:54;15.18;;;11.98;;
11524;SDS011;5819;49.648;8.330;2023-04-06T07:54:22;15.18;;;12.57;;
11524;SDS011;5819;49.648;8.330;2023-04-06T07:56:50;16.35;;;12.93;;
11524;SDS011;5819;49.648;8.330;2023-04-06T07:59:18;18.95;;;12.50;;
11524;SDS011;5819;49.648;8.330;2023-04-06T08:01:49;14.27;;;12.20;;
11524;SDS011;5819;49.648;8.330;2023-04-06T08:04:21;15.40;;;11.93;;
11524;SDS011;5819;49.648;8.330;2023-04-06T08:06:50;14.00;;;11.90;;
11524;SDS011;5819;49.648;8.330;2023-04-06T08:09:18;14.32;;;11.68;;
11524;SDS011;5819;49.648;8.330;2023-04-06T08:11:46;12.30;;;10.88;;
11524;SDS011;5819;49.648;8.330;2023-04-06T08:14:15;15.30;;;11.57;;
11524;SDS011;5819;49.648;8.330;2023-04-06T08:16:43;12.70;;;10.85;;
11524;SDS011;5819;49.648;8.330;2023-04-06T08:19:13;12.45;;;11.18;;
11524;SDS011;5819;49.648;8.330;2023-04-06T08:21:43;14.35;;;11.10;;
11524;SDS011;5819;49.648;8.330;2023-04-06T08:24:13;15.02;;;11.32;;
11524;SDS011;5819;49.648;8.330;2023-04-06T08:26:41;12.48;;;10.93;;
11524;SDS011;5819;49.648;8.330;2023-04-06T08:29:10;11.50;;;10.23;;
11524;SDS011;5819;49.648;8.330;2023-04-06T08:31:41;11.68;;;10.48;;
11524;SDS011;5819;49.648;8.330;2023-04-06T08:34:15;13.68;;;10.95;;
11524;SDS011;5819;49.648;8.330;2023-04-06T08:36:43;11.90;;;10.38;;
11524;SDS011;5819;49.648;8.330;2023-04-06T08:39:13;12.68;;;10.38;;
11524;SDS011;5819;49.648;8.330;2023-04-06T08:41:41;13.02;;;10.48;;
11524;SDS011;5819;49.648;8.330;2023-04-06T08:44:10;11.77;;;10.40;;
11524;SDS011;5819;49.648;8.330;2023-04-06T08:46:40;13.82;;;10.93;;
11524;SDS011;5819;49.648;8.330;2023-04-06T08:49:08;12.73;;;11.32;;
11524;SDS011;5819;49.648;8.330;2023-04-06T08:51:39;15.52;;;11.10;;
11524;SDS011;5819;49.648;8.330;2023-04-06T08:54:09;14.68;;;11.40;;
11524;SDS011;5819;49.648;8.330;2023-04-06T08:56:39;12.13;;;10.93;;
11524;SDS011;5819;49.648;8.330;2023-04-06T08:59:08;14.80;;;11.68;;
11524;SDS011;5819;49.648;8.330;2023-04-06T09:01:38;13.57;;;11.48;;
11524;SDS011;5819;49.648;8.330;2023-04-06T09:04:12;16.40;;;12.60;;
11524;SDS011;5819;49.648;8.330;2023-04-06T09:06:43;17.20;;;11.57;;
11524;SDS011;5819;49.648;8.330;2023-04-06T09:09:12;14.63;;;11.60;;
11524;SDS011;5819;49.648;8.330;2023-04-06T09:11:42;13.95;;;11.90;;
11524;SDS011;5819;49.648;8.330;2023-04-06T09:14:12;16.63;;;12.20;;
11524;SDS011;5819;49.648;8.330;2023-04-06T09:16:40;15.15;;;11.88;;
11524;SDS011;5819;49.648;8.330;2023-04-06T09:19:09;14.18;;;12.48;;
11524;SDS011;5819;49.648;8.330;2023-04-06T09:21:39;16.15;;;12.65;;
11524;SDS011;5819;49.648;8.330;2023-04-06T09:24:10;13.57;;;12.10;;
11524;SDS011;5819;49.648;8.330;2023-04-06T09:26:45;15.73;;;12.85;;
11524;SDS011;5819;49.648;8.330;2023-04-06T09:29:23;15.10;;;12.88;;
11524;SDS011;5819;49.648;8.330;2023-04-06T09:32:01;14.07;;;12.57;;
11524;SDS011;5819;49.648;8.330;2023-04-06T09:34:31;18.13;;;13.48;;
11524;SDS011;5819;49.648;8.330;2023-04-06T09:37:00;14.48;;;12.30;;
11524;SDS011;5819;49.648;8.330;2023-04-06T09:39:42;14.48;;;12.73;;
11524;SDS011;5819;49.648;8.330;2023-04-06T09:42:23;17.27;;;12.63;;
11524;SDS011;5819;49.648;8.330;2023-04-06T09:44:52;14.57;;;12.98;;
11524;SDS011;5819;49.648;8.330;2023-04-06T09:47:21;18.75;;;13.20;;
11524;SDS011;5819;49.648;8.330;2023-04-06T09:49:55;15.45;;;13.00;;
11524;SDS011;5819;49.648;8.330;2023-04-06T09:52:26;16.42;;;14.07;;
11524;SDS011;5819;49.648;8.330;2023-04-06T09:54:58;17.38;;;13.23;;
11524;SDS011;5819;49.648;8.330;2023-04-06T09:57:31;14.45;;;12.52;;
11524;SDS011;5819;49.648;8.330;2023-04-06T10:00:04;14.57;;;12.82;;
11524;SDS011;5819;49.648;8.330;2023-04-06T10:02:44;16.08;;;13.60;;
11524;SDS011;5819;49.648;8.330;2023-04-06T10:05:19;16.35;;;14.00;;
11524;SDS011;5819;49.648;8.330;2023-04-06T10:07:59;17.13;;;13.82;;
11524;SDS011;5819;49.648;8.330;2023-04-06T10:10:33;14.95;;;13.38;;
11524;SDS011;5819;49.648;8.330;2023-04-06T10:13:02;15.07;;;13.43;;
11524;SDS011;5819;49.648;8.330;2023-04-06T10:15:32;16.02;;;13.70;;
11524;SDS011;5819;49.648;8.330;2023-04-06T10:18:03;15.60;;;13.07;;
11524;SDS011;5819;49.648;8.330;2023-04-06T10:20:34;16.20;;;13.13;;
11524;SDS011;5819;49.648;8.330;2023-04-06T10:23:08;16.13;;;12.55;;
11524;SDS011;5819;49.648;8.330;2023-04-06T10:25:53;15.77;;;11.73;;
11524;SDS011;5819;49.648;8.330;2023-04-06T10:28:22;14.63;;;12.45;;
11524;SDS011;5819;49.648;8.330;2023-04-06T10:30:56;13.57;;;11.75;;
11524;SDS011;5819;49.648;8.330;2023-04-06T10:33:31;16.23;;;11.65;;
11524;SDS011;5819;49.648;8.330;2023-04-06T10:36:09;13.82;;;11.57;;
11524;SDS011;5819;49.648;8.330;2023-04-06T10:38:38;18.13;;;11.57;;
11524;SDS011;5819;49.648;8.330;2023-04-06T10:41:10;18.05;;;11.73;;
11524;SDS011;5819;49.648;8.330;2023-04-06T10:43:40;17.27;;;11.85;;
11524;SDS011;5819;49.648;8.330;2023-04-06T10:46:09;13.73;;;11.27;;
11524;SDS011;5819;49.648;8.330;2023-04-06T10:48:38;16.25;;;11.60;;
11524;SDS011;5819;49.648;8.330;2023-04-06T10:51:09;16.63;;;11.40;;
11524;SDS011;5819;49.648;8.330;2023-04-06T10:53:41;17.48;;;11.00;;
11524;SDS011;5819;49.648;8.330;2023-04-06T10:56:12;14.05;;;11.05;;
11524;SDS011;5819;49.648;8.330;2023-04-06T10:58:45;13.93;;;10.23;;
11524;SDS011;5819;49.648;8.330;2023-04-06T11:01:15;12.93;;;9.48;;
11524;SDS011;5819;49.648;8.330;2023-04-06T11:03:48;11.10;;;9.38;;
11524;SDS011;5819;49.648;8.330;2023-04-06T11:06:19;11.27;;;9.10;;
11524;SDS011;5819;49.648;8.330;2023-04-06T11:08:48;13.05;;;8.82;;
11524;SDS011;5819;49.648;8.330;2023-04-06T11:11:27;12.52;;;9.55;;
11524;SDS011;5819;49.648;8.330;2023-04-06T11:13:56;10.52;;;8.40;;
11524;SDS011;5819;49.648;8.330;2023-04-06T11:16:28;11.10;;;8.48;;
11524;SDS011;5819;49.648;8.330;2023-04-06T11:18:58;11.60;;;8.45;;
11524;SDS011;5819;49.648;8.330;2023-04-06T11:21:34;12.48;;;8.10;;
11524;SDS011;5819;49.648;8.330;2023-04-06T11:24:04;9.68;;;7.97;;
11524;SDS011;5819;49.648;8.330;2023-04-06T11:26:38;14.38;;;8.57;;
11524;SDS011;5819;49.648;8.330;2023-04-06T11:29:06;9.38;;;7.72;;
11524;SDS011;5819;49.648;8.330;2023-04-06T11:31:41;10.13;;;8.05;;
11524;SDS011;5819;49.648;8.330;2023-04-06T11:34:16;9.05;;;7.22;;
11524;SDS011;5819;49.648;8.330;2023-04-06T11:36:47;8.68;;;6.63;;
11524;SDS011;5819;49.648;8.330;2023-04-06T11:39:18;10.02;;;7.57;;
11524;SDS011;5819;49.648;8.330;2023-04-06T11:41:49;10.75;;;7.20;;
11524;SDS011;5819;49.648;8.330;2023-04-06T11:44:28;8.68;;;7.00;;
11524;SDS011;5819;49.648;8.330;2023-04-06T11:46:59;7.70;;;6.82;;
11524;SDS011;5819;49.648;8.330;2023-04-06T11:49:31;10.95;;;7.50;;
11524;SDS011;5819;49.648;8.330;2023-04-06T11:52:02;8.80;;;7.38;;
11524;SDS011;5819;49.648;8.330;2023-04-06T11:54:31;10.45;;;7.82;;
11524;SDS011;5819;49.648;8.330;2023-04-06T11:57:03;9.27;;;7.50;;
11524;SDS011;5819;49.648;8.330;2023-04-06T11:59:32;9.43;;;7.78;;
11524;SDS011;5819;49.648;8.330;2023-04-06T12:02:00;8.07;;;7.13;;
11524;SDS011;5819;49.648;8.330;2023-04-06T12:04:31;10.02;;;8.10;;
11524;SDS011;5819;49.648;8.330;2023-04-06T12:07:00;10.63;;;7.13;;
11524;SDS011;5819;49.648;8.330;2023-04-06T12:09:28;9.43;;;8.00;;
11524;SDS011;5819;49.648;8.330;2023-04-06T12:11:57;9.63;;;7.95;;
11524;SDS011;5819;49.648;8.330;2023-04-06T12:14:26;8.82;;;7.15;;
11524;SDS011;5819;49.648;8.330;2023-04-06T12:16:54;7.57;;;6.60;;
11524;SDS011;5819;49.648;8.330;2023-04-06T12:19:22;8.95;;;7.60;;
11524;SDS011;5819;49.648;8.330;2023-04-06T12:21:52;9.52;;;7.25;;
11524;SDS011;5819;49.648;8.330;2023-04-06T12:24:21;10.68;;;7.38;;
11524;SDS011;5819;49.648;8.330;2023-04-06T12:26:49;11.52;;;7.78;;
11524;SDS011;5819;49.648;8.330;2023-04-06T12:29:29;9.82;;;7.30;;
11524;SDS011;5819;49.648;8.330;2023-04-06T12:31:57;9.48;;;7.10;;
11524;SDS011;5819;49.648;8.330;2023-04-06T12:34:25;15.75;;;7.93;;
11524;SDS011;5819;49.648;8.330;2023-04-06T12:36:53;8.30;;;6.85;;
11524;SDS011;5819;49.648;8.330;2023-04-06T12:39:22;10.82;;;7.03;;
11524;SDS011;5819;49.648;8.330;2023-04-06T12:41:52;7.70;;;6.80;;
11524;SDS011;5819;49.648;8.330;2023-04-06T12:44:21;9.35;;;6.95;;
11524;SDS011;5819;49.648;8.330;2023-04-06T12:46:53;10.60;;;7.10;;
11524;SDS011;5819;49.648;8.330;2023-04-06T12:49:22;12.93;;;6.97;;
11524;SDS011;5819;49.648;8.330;2023-04-06T12:51:49;11.57;;;7.30;;
11524;SDS011;5819;49.648;8.330;2023-04-06T12:54:17;10.50;;;7.00;;
11524;SDS011;5819;49.648;8.330;2023-04-06T12:56:46;11.18;;;7.55;;
11524;SDS011;5819;49.648;8.330;2023-04-06T12:59:14;10.45;;;7.45;;
11524;SDS011;5819;49.648;8.330;2023-04-06T13:01:42;9.80;;;7.45;;
11524;SDS011;5819;49.648;8.330;2023-04-06T13:04:13;8.85;;;7.50;;
11524;SDS011;5819;49.648;8.330;2023-04-06T13:06:41;8.93;;;7.75;;
11524;SDS011;5819;49.648;8.330;2023-04-06T13:09:09;9.57;;;7.38;;
11524;SDS011;5819;49.648;8.330;2023-04-06T13:11:37;9.63;;;8.13;;
11524;SDS011;5819;49.648;8.330;2023-04-06T13:14:05;11.98;;;8.27;;
11524;SDS011;5819;49.648;8.330;2023-04-06T13:16:33;7.72;;;6.78;;
11524;SDS011;5819;49.648;8.330;2023-04-06T13:19:01;12.07;;;7.22;;
11524;SDS011;5819;49.648;8.330;2023-04-06T13:21:31;9.77;;;7.10;;
11524;SDS011;5819;49.648;8.330;2023-04-06T13:23:59;11.77;;;7.32;;
11524;SDS011;5819;49.648;8.330;2023-04-06T13:26:27;10.52;;;7.40;;
11524;SDS011;5819;49.648;8.330;2023-04-06T13:28:56;14.13;;;6.93;;
11524;SDS011;5819;49.648;8.330;2023-04-06T13:31:24;8.82;;;7.10;;
11524;SDS011;5819;49.648;8.330;2023-04-06T13:33:52;8.82;;;6.75;;
11524;SDS011;5819;49.648;8.330;2023-04-06T13:36:20;8.48;;;6.45;;
11524;SDS011;5819;49.648;8.330;2023-04-06T13:38:50;10.90;;;6.88;;
11524;SDS011;5819;49.648;8.330;2023-04-06T13:41:19;9.10;;;6.65;;
11524;SDS011;5819;49.648;8.330;2023-04-06T13:43:48;8.05;;;6.32;;
11524;SDS011;5819;49.648;8.330;2023-04-06T13:46:16;7.47;;;6.10;;
11524;SDS011;5819;49.648;8.330;2023-04-06T13:48:44;10.50;;;5.70;;
11524;SDS011;5819;49.648;8.330;2023-04-06T13:51:13;7.55;;;6.25;;
11524;SDS011;5819;49.648;8.330;2023-04-06T13:53:42;9.60;;;5.95;;
11524;SDS011;5819;49.648;8.330;2023-04-06T13:56:11;7.85;;;5.90;;
11524;SDS011;5819;49.648;8.330;2023-04-06T13:58:39;8.27;;;5.70;;
11524;SDS011;5819;49.648;8.330;2023-04-06T14:01:07;10.73;;;5.82;;
11524;SDS011;5819;49.648;8.330;2023-04-06T14:03:37;7.72;;;5.60;;
11524;SDS011;5819;49.648;8.330;2023-04-06T14:06:11;9.35;;;5.78;;
11524;SDS011;5819;49.648;8.330;2023-04-06T14:08:56;7.03;;;5.78;;
11524;SDS011;5819;49.648;8.330;2023-04-06T14:11:27;11.43;;;5.75;;
11524;SDS011;5819;49.648;8.330;2023-04-06T14:13:55;7.00;;;5.43;;
11524;SDS011;5819;49.648;8.330;2023-04-06T14:16:24;6.63;;;5.45;;
11524;SDS011;5819;49.648;8.330;2023-04-06T14:18:53;7.22;;;5.05;;
11524;SDS011;5819;49.648;8.330;2023-04-06T14:21:21;7.18;;;5.43;;
11524;SDS011;5819;49.648;8.330;2023-04-06T14:23:49;7.45;;;5.47;;
11524;SDS011;5819;49.648;8.330;2023-04-06T14:26:19;9.07;;;5.43;;
11524;SDS011;5819;49.648;8.330;2023-04-06T14:28:49;10.88;;;5.85;;
11524;SDS011;5819;49.648;8.330;2023-04-06T14:31:18;9.68;;;5.85;;
11524;SDS011;5819;49.648;8.330;2023-04-06T14:33:46;10.07;;;6.43;;
11524;SDS011;5819;49.648;8.330;2023-04-06T14:36:14;12.38;;;7.50;;
11524;SDS011;5819;49.648;8.330;2023-04-06T14:38:43;9.65;;;6.32;;
11524;SDS011;5819;49.648;8.330;2023-04-06T14:41:15;8.88;;;6.10;;
11524;SDS011;5819;49.648;8.330;2023-04-06T14:43:45;7.68;;;5.95;;
11524;SDS011;5819;49.648;8.330;2023-04-06T14:46:15;8.45;;;6.13;;
11524;SDS011;5819;49.648;8.330;2023-04-06T14:48:43;10.38;;;5.57;;
11524;SDS011;5819;49.648;8.330;2023-04-06T14:51:11;9.05;;;5.72;;
11524;SDS011;5819;49.648;8.330;2023-04-06T14:53:40;9.00;;;5.90;;
11524;SDS011;5819;49.648;8.330;2023-04-06T14:56:08;8.27;;;6.10;;
11524;SDS011;5819;49.648;8.330;2023-04-06T14:58:37;9.13;;;5.95;;
11524;SDS011;5819;49.648;8.330;2023-04-06T15:01:06;8.85;;;5.93;;
11524;SDS011;5819;49.648;8.330;2023-04-06T15:03:36;7.35;;;5.57;;